Terminal Aerodrome Forecast
Issued by NWS Topeka, KS

Home | Current Version | Previous Version | Text Only | Print | Product List | Glossary Off
Versions: 1 2 3 4 5 6 7 8 9 10 11 12 13 14 15 16 17 18 19 20 21 22

000
FTUS43 KTOP 272320
TAFTOP
TAF
KTOP 272320Z 2800/2824 16012KT P6SM BKN150
     FM280700 17010KT P6SM VCTS SCT060CB BKN150
      TEMPO 2810/2813 VRB15G25KT 3SM TSRA BKN030CB
     FM281400 19010KT P6SM BKN050
     FM281900 23012KT P6SM VCTS BKN050CB
     FM282200 23010KT P6SM SCT050 BKN120=

USA.gov is the U.S. government's official web portal to all federal, state and local government web resources and services.